Airfield :
LOGIN :

Register | Disclaimer

   EN    FR    IT 

 










Legend :    VFR   Marginal VFR   IFR   Intensive IFR   Very Intensive IFR
Visi :
Ceiling :
>= 8 km
>= 3000ft
5 to 8 km
1000 to 3000 ft
1500m to 5 km
500 to 1000 ft
800 to 1500m
200 to 500 ft
< 800m
< 200 ft
Symbols :   Thunderstorms  Fog  Heavy snow  Heavy precipitations  Wind > 20 kt
SIGMETs :     Misc.  Thunderstorms  Icing  Turbulence  Mountain Waves  Volcanic Ashes






- Airport Elevation : 83 ft
- IATA code : LHR


EGLL - London Heathrow

CURRENT METAR :
  • 200020Z 28001KT 9000 NSC 06/05 Q1006

EXPIRED METARs :
  • 192350Z AUTO VRB01KT 6000 NCD 07/06 Q1006
  • 192320Z AUTO 25002KT 9999 NCD 07/07 Q1006
  • 192250Z AUTO 27004KT 9999 NCD 08/07 Q1006
  • 192220Z AUTO VRB03KT 9999 NCD 08/07 Q1005 NOSIG
  • 192150Z AUTO 26007KT 9999 NCD 08/07 Q1005 NOSIG

TAF TAF EGLL
Valid from the 20 at 00:00 until the 21 at 06:00 UTC


192256Z 2000/2106 24006KT 9999 FEW035
BECMG 2000/2003 8000
PROB30 2003/2007 3000 BR BKN004
PROB30
TEMPO 2007/2011 BKN008
BECMG 2008/2011 01010KT 9999
PROB30
TEMPO 2100/2106 8000 BKN009



MET'MAP, your aeronautical weather chart ! - Copyright ORBIFLY December 2007 - Disclaimer

ORBIFLY MET'MAP TEAM :

Programming & Development : Alexandra Zaïnal
Concept & Development : Baudouin d'Aumeries
Co-Development & Prog : Marc-Olivier Méhu
Technical & hardware support : Manuel Goepfert

Contact : metmap@orbifly.com




SOURCES & CREDITS :

   NOAA